createdAt,value
2022-12-01T00:01:08.163Z,9.63
2022-12-01T00:03:35.623Z,9.17
2022-12-01T00:06:04.697Z,9.13
2022-12-01T00:08:31.923Z,10.50
2022-12-01T00:11:05.657Z,10.80
2022-12-01T00:13:32.485Z,9.70
2022-12-01T00:16:09.321Z,9.90
2022-12-01T00:18:35.905Z,10.13
2022-12-01T00:21:02.445Z,10.27
2022-12-01T00:23:28.926Z,10.13
2022-12-01T00:25:55.567Z,10.23
2022-12-01T00:28:22.003Z,9.37
2022-12-01T00:30:48.465Z,10.30
2022-12-01T00:33:15.158Z,10.10
2022-12-01T00:35:41.590Z,10.73
2022-12-01T00:38:08.059Z,10.67
2022-12-01T00:40:35.420Z,10.53
2022-12-01T00:43:02.404Z,10.37
2022-12-01T00:45:28.795Z,10.70
2022-12-01T00:47:55.273Z,10.93
2022-12-01T00:50:21.813Z,10.30
2022-12-01T00:52:48.543Z,10.00
2022-12-01T00:55:15.102Z,10.93
2022-12-01T00:57:41.527Z,10.77
2022-12-01T01:00:08.672Z,10.67
2022-12-01T01:02:35.771Z,10.57
2022-12-01T01:05:02.226Z,11.13
2022-12-01T01:07:30.134Z,10.97
2022-12-01T01:09:56.983Z,11.07
2022-12-01T01:12:23.492Z,10.73
2022-12-01T01:14:50.051Z,11.07
2022-12-01T01:17:16.666Z,11.33
2022-12-01T01:19:43.367Z,10.93
2022-12-01T01:22:09.786Z,11.43
2022-12-01T01:24:36.572Z,12.43
2022-12-01T01:27:03.153Z,10.50
2022-12-01T01:29:29.701Z,11.27
2022-12-01T01:31:56.241Z,11.70
2022-12-01T01:34:22.702Z,11.63
2022-12-01T01:36:49.311Z,11.57
2022-12-01T01:39:16.287Z,11.30
2022-12-01T01:41:42.910Z,12.27
2022-12-01T01:44:46.796Z,12.40
2022-12-01T01:47:13.924Z,12.73
2022-12-01T01:49:41.090Z,12.40
2022-12-01T01:52:07.799Z,12.63
2022-12-01T01:54:38.238Z,12.77
2022-12-01T01:57:05.930Z,12.03
2022-12-01T01:59:37.876Z,11.87
2022-12-01T02:02:09.287Z,12.40
2022-12-01T02:04:41.188Z,12.90
2022-12-01T02:07:09.186Z,12.77
2022-12-01T02:09:36.410Z,12.77
2022-12-01T02:12:40.015Z,12.73
2022-12-01T02:15:15.443Z,12.60
2022-12-01T02:18:06.981Z,12.80
2022-12-01T02:20:59.150Z,13.03
2022-12-01T02:23:31.730Z,12.20
2022-12-01T02:26:39.356Z,12.00
2022-12-01T02:29:37.690Z,12.83
2022-12-01T02:32:15.908Z,13.23
2022-12-01T02:34:56.396Z,13.67
2022-12-01T02:37:34.221Z,12.67
2022-12-01T02:40:12.082Z,13.93
2022-12-01T02:42:56.630Z,12.97
2022-12-01T02:45:43.328Z,13.70
2022-12-01T02:48:14.607Z,12.97
2022-12-01T02:50:42.967Z,13.60
2022-12-01T02:53:11.598Z,13.77
2022-12-01T02:55:47.083Z,14.07
2022-12-01T02:58:14.874Z,13.63
2022-12-01T03:00:55.044Z,13.93
2022-12-01T03:03:45.089Z,14.20
2022-12-01T03:06:24.643Z,14.60
2022-12-01T03:09:09.419Z,14.83
2022-12-01T03:11:50.468Z,15.23
2022-12-01T03:14:35.145Z,14.13
2022-12-01T03:17:05.164Z,16.27
2022-12-01T03:19:38.999Z,14.97
2022-12-01T03:22:11.187Z,14.63
2022-12-01T03:24:38.959Z,15.27
2022-12-01T03:27:06.479Z,15.37
2022-12-01T03:29:43.259Z,15.10
2022-12-01T03:32:24.136Z,15.67
2022-12-01T03:34:58.550Z,14.90
2022-12-01T03:37:35.338Z,13.93
2022-12-01T03:40:03.255Z,14.53
2022-12-01T03:42:36.938Z,16.53
2022-12-01T03:45:10.277Z,15.50
2022-12-01T03:47:39.716Z,15.37
2022-12-01T03:50:08.124Z,14.90
2022-12-01T03:53:22.270Z,14.53
2022-12-01T03:55:52.699Z,14.50
2022-12-01T03:58:26.318Z,15.67
2022-12-01T04:00:55.671Z,15.67
2022-12-01T04:03:24.594Z,14.83
2022-12-01T04:05:51.237Z,15.60
2022-12-01T04:08:17.963Z,14.33
2022-12-01T04:10:44.413Z,13.97
2022-12-01T04:13:16.937Z,16.63
2022-12-01T04:15:43.570Z,14.90
2022-12-01T04:18:10.072Z,14.47
2022-12-01T04:20:36.690Z,16.03
2022-12-01T04:23:03.094Z,15.47
2022-12-01T04:25:29.513Z,15.60
2022-12-01T04:27:56.146Z,14.73
2022-12-01T04:30:22.705Z,16.27
2022-12-01T04:32:49.163Z,15.87
2022-12-01T04:35:15.826Z,14.33
2022-12-01T04:37:42.245Z,15.13
2022-12-01T04:40:09.140Z,14.67
2022-12-01T04:42:35.759Z,15.10
2022-12-01T04:45:02.389Z,15.77
2022-12-01T04:47:28.865Z,15.43
2022-12-01T04:49:55.527Z,15.20
2022-12-01T04:52:22.038Z,15.90
2022-12-01T04:54:48.473Z,15.87
2022-12-01T04:57:15.308Z,14.53
2022-12-01T04:59:41.737Z,16.47
2022-12-01T05:02:08.241Z,15.27
2022-12-01T05:04:38.694Z,15.47
2022-12-01T05:07:05.390Z,15.93
2022-12-01T05:09:31.876Z,15.17
2022-12-01T05:11:58.394Z,16.87
2022-12-01T05:14:24.807Z,16.60
2022-12-01T05:16:51.359Z,15.87
2022-12-01T05:19:36.563Z,15.97
2022-12-01T05:22:03.025Z,16.47
2022-12-01T05:24:29.567Z,16.70
2022-12-01T05:26:56.057Z,17.63
2022-12-01T05:29:22.649Z,18.10
2022-12-01T05:31:49.158Z,16.87
2022-12-01T05:34:16.135Z,18.07
2022-12-01T05:36:42.547Z,17.13
2022-12-01T05:39:08.965Z,18.07
2022-12-01T05:41:35.519Z,17.27
2022-12-01T05:44:02.086Z,17.97
2022-12-01T05:46:28.486Z,18.30
2022-12-01T05:48:55.111Z,18.57
2022-12-01T05:51:21.645Z,18.43
2022-12-01T05:53:48.123Z,18.10
2022-12-01T05:56:14.959Z,16.90
2022-12-01T05:58:41.565Z,18.47
2022-12-01T06:01:07.995Z,17.50
2022-12-01T06:03:35.482Z,16.53
2022-12-01T06:06:02.175Z,15.90
2022-12-01T06:08:28.749Z,15.77
2022-12-01T06:10:55.249Z,15.97
2022-12-01T06:13:21.849Z,16.57
2022-12-01T06:16:02.631Z,15.90
2022-12-01T06:18:35.302Z,16.53
2022-12-01T06:21:02.760Z,16.10
2022-12-01T06:23:30.741Z,14.60
2022-12-01T06:25:57.861Z,15.80
2022-12-01T06:28:24.333Z,15.23
2022-12-01T06:30:50.870Z,15.33
2022-12-01T06:33:17.963Z,15.10
2022-12-01T06:35:44.659Z,14.43
2022-12-01T06:38:11.155Z,14.87
2022-12-01T06:40:37.661Z,15.10
2022-12-01T06:43:04.135Z,14.73
2022-12-01T06:45:30.990Z,15.53
2022-12-01T06:47:57.931Z,16.03
2022-12-01T06:50:25.184Z,16.23
2022-12-01T06:52:52.784Z,15.40
2022-12-01T06:55:19.574Z,16.00
2022-12-01T06:57:46.395Z,14.93
2022-12-01T07:00:14.117Z,14.73
2022-12-01T07:02:40.753Z,15.40
2022-12-01T07:05:07.687Z,14.90
2022-12-01T07:07:38.605Z,15.50
2022-12-01T07:10:06.306Z,14.57
2022-12-01T07:12:32.842Z,14.40
2022-12-01T07:14:59.408Z,14.57
2022-12-01T07:17:26.066Z,14.20
2022-12-01T07:19:52.612Z,14.37
2022-12-01T07:22:19.674Z,14.93
2022-12-01T07:24:46.584Z,13.87
2022-12-01T07:27:13.123Z,13.83
2022-12-01T07:29:39.795Z,12.93
2022-12-01T07:32:06.587Z,13.97
2022-12-01T07:34:33.474Z,14.03
2022-12-01T07:37:00.086Z,13.67
2022-12-01T07:39:26.874Z,14.63
2022-12-01T07:41:53.415Z,15.13
2022-12-01T07:44:20.011Z,14.40
2022-12-01T07:46:46.612Z,15.63
2022-12-01T07:49:15.555Z,15.23
2022-12-01T07:51:42.250Z,15.37
2022-12-01T07:54:10.859Z,15.27
2022-12-01T07:56:37.630Z,15.90
2022-12-01T07:59:04.176Z,15.80
2022-12-01T08:01:30.983Z,15.77
2022-12-01T08:03:58.937Z,16.07
2022-12-01T08:06:26.691Z,15.77
2022-12-01T08:08:53.435Z,16.50
2022-12-01T08:11:22.712Z,15.60
2022-12-01T08:13:50.111Z,15.87
2022-12-01T08:16:18.726Z,16.23
2022-12-01T08:18:45.153Z,16.33
2022-12-01T08:21:14.890Z,16.90
2022-12-01T08:23:42.212Z,17.30
2022-12-01T08:26:18.521Z,16.37
2022-12-01T08:28:45.870Z,16.90
2022-12-01T08:31:14.225Z,16.50
2022-12-01T08:33:40.971Z,16.40
2022-12-01T08:36:07.977Z,15.83
2022-12-01T08:38:35.765Z,16.97
2022-12-01T08:41:03.933Z,15.90
2022-12-01T08:46:17.291Z,16.23
2022-12-01T08:48:43.896Z,15.83
2022-12-01T08:51:12.720Z,17.03
2022-12-01T08:53:45.482Z,14.83
2022-12-01T08:56:27.674Z,15.10
2022-12-01T08:58:55.175Z,14.77
2022-12-01T09:01:22.206Z,14.77
2022-12-01T09:03:49.108Z,14.80
2022-12-01T09:06:20.181Z,14.17
2022-12-01T09:08:47.331Z,14.30
2022-12-01T09:11:17.613Z,14.30
2022-12-01T09:13:48.626Z,15.27
2022-12-01T09:16:18.567Z,14.00
2022-12-01T09:18:46.459Z,14.67
2022-12-01T09:21:18.132Z,15.83
2022-12-01T09:23:44.717Z,15.20
2022-12-01T09:26:13.830Z,15.97
2022-12-01T09:28:40.816Z,14.83
2022-12-01T09:31:09.177Z,15.87
2022-12-01T09:33:36.427Z,15.43
2022-12-01T09:36:05.262Z,15.60
2022-12-01T09:38:34.061Z,16.10
2022-12-01T09:41:17.800Z,15.17
2022-12-01T09:43:49.250Z,14.23
2022-12-01T09:46:22.289Z,15.17
2022-12-01T09:48:49.908Z,16.93
2022-12-01T09:51:22.533Z,16.13
2022-12-01T09:53:51.494Z,14.30
2022-12-01T09:56:22.414Z,15.67
2022-12-01T09:58:57.533Z,14.90
2022-12-01T10:01:36.070Z,15.23
2022-12-01T10:04:10.056Z,15.50
2022-12-01T10:06:39.939Z,15.90
2022-12-01T10:09:25.878Z,17.07
2022-12-01T10:11:55.461Z,17.47
2022-12-01T10:14:22.309Z,17.93
2022-12-01T10:17:04.122Z,17.67
2022-12-01T10:20:11.163Z,17.03
2022-12-01T10:22:45.978Z,16.33
2022-12-01T10:25:27.750Z,18.23
2022-12-01T10:28:27.361Z,18.93
2022-12-01T10:30:57.440Z,18.13
2022-12-01T10:33:26.219Z,18.13
2022-12-01T10:35:53.108Z,18.83
2022-12-01T10:38:25.577Z,19.90
2022-12-01T10:40:53.728Z,20.73
2022-12-01T10:43:40.917Z,20.00
2022-12-01T10:46:22.775Z,20.53
2022-12-01T10:48:55.384Z,19.97
2022-12-01T10:51:22.829Z,19.57
2022-12-01T10:53:50.136Z,19.47
2022-12-01T10:56:19.143Z,20.27
2022-12-01T10:58:48.062Z,21.07
2022-12-01T11:01:24.325Z,20.40
2022-12-01T11:03:59.480Z,21.63
2022-12-01T11:06:29.448Z,23.00
2022-12-01T11:08:58.312Z,22.73
2022-12-01T11:11:34.121Z,22.33
2022-12-01T11:14:04.761Z,21.97
2022-12-01T11:16:40.994Z,22.20
2022-12-01T11:19:26.892Z,20.77
2022-12-01T11:21:57.207Z,20.87
2022-12-01T11:24:54.654Z,18.97
2022-12-01T11:27:49.572Z,20.60
2022-12-01T11:30:26.277Z,20.73
2022-12-01T11:32:55.781Z,23.00
2022-12-01T11:35:25.068Z,23.07
2022-12-01T11:40:49.641Z,21.27
2022-12-01T11:43:37.073Z,21.80
2022-12-01T11:46:05.886Z,19.73
2022-12-01T11:48:36.444Z,21.40
2022-12-01T11:51:37.345Z,21.13
2022-12-01T11:54:11.858Z,19.67
2022-12-01T11:56:38.455Z,19.77
2022-12-01T11:59:26.616Z,22.03
2022-12-01T12:02:06.180Z,22.13
2022-12-01T12:04:41.468Z,21.57
2022-12-01T12:07:46.904Z,20.93
2022-12-01T12:10:39.063Z,21.93
2022-12-01T12:13:05.894Z,20.87
2022-12-01T12:16:01.355Z,19.87
2022-12-01T12:19:03.448Z,21.33
2022-12-01T12:21:44.666Z,21.13
2022-12-01T12:24:14.851Z,20.70
2022-12-01T12:26:52.521Z,21.00
2022-12-01T12:29:35.964Z,21.77
2022-12-01T12:32:22.116Z,21.30
2022-12-01T12:35:01.145Z,22.37
2022-12-01T12:37:49.920Z,24.37
2022-12-01T12:40:41.080Z,22.30
2022-12-01T12:43:30.365Z,21.40
2022-12-01T12:46:07.567Z,21.83
2022-12-01T12:49:11.639Z,22.33
2022-12-01T12:51:55.780Z,22.63
2022-12-01T12:54:32.630Z,23.10
2022-12-01T12:57:03.687Z,22.20
2022-12-01T12:59:43.497Z,20.83
2022-12-01T13:02:15.122Z,21.17
2022-12-01T13:05:05.654Z,21.37
2022-12-01T13:08:00.228Z,20.50
2022-12-01T13:10:36.989Z,21.37
2022-12-01T13:13:30.482Z,20.23
2022-12-01T13:15:58.878Z,20.27
2022-12-01T13:18:41.332Z,21.27
2022-12-01T13:21:20.495Z,19.43
2022-12-01T13:23:49.308Z,19.83
2022-12-01T13:26:18.381Z,19.00
2022-12-01T13:28:49.297Z,19.60
2022-12-01T13:31:19.759Z,16.37
2022-12-01T13:33:56.246Z,18.00
2022-12-01T13:36:45.789Z,17.80
2022-12-01T13:39:23.195Z,16.80
2022-12-01T13:42:18.182Z,17.87
2022-12-01T13:44:51.205Z,16.00
2022-12-01T13:47:20.841Z,15.90
2022-12-01T13:49:52.272Z,12.33
2022-12-01T13:52:22.109Z,12.17
2022-12-01T13:55:09.584Z,14.37
2022-12-01T13:57:45.456Z,11.47
2022-12-01T14:00:26.216Z,11.43
2022-12-01T14:03:19.423Z,11.57
2022-12-01T14:05:46.059Z,11.23
2022-12-01T14:08:23.667Z,11.03
2022-12-01T14:10:56.826Z,10.13
2022-12-01T14:13:24.332Z,10.17
2022-12-01T14:16:01.929Z,9.37
2022-12-01T14:18:57.663Z,9.47
2022-12-01T14:21:45.625Z,9.67
2022-12-01T14:24:23.523Z,9.07
2022-12-01T14:26:51.086Z,8.77
2022-12-01T14:29:32.479Z,9.07
2022-12-01T14:32:01.705Z,9.40
2022-12-01T14:34:32.197Z,8.60
2022-12-01T14:37:17.020Z,8.33
2022-12-01T14:39:46.533Z,8.73
2022-12-01T14:42:43.968Z,8.33
2022-12-01T14:45:13.754Z,8.27
2022-12-01T14:47:47.799Z,9.03
2022-12-01T14:50:35.300Z,10.23
2022-12-01T14:53:07.302Z,8.87
2022-12-01T14:55:42.185Z,10.27
2022-12-01T14:58:20.155Z,10.23
2022-12-01T15:01:06.087Z,10.60
2022-12-01T15:03:44.300Z,9.67
2022-12-01T15:06:20.254Z,11.33
2022-12-01T15:09:10.614Z,10.50
2022-12-01T15:11:35.942Z,11.27
2022-12-01T15:14:02.725Z,11.77
2022-12-01T15:16:40.632Z,12.03
2022-12-01T15:19:32.777Z,12.93
2022-12-01T15:22:02.668Z,13.70
2022-12-01T15:24:30.968Z,13.17
2022-12-01T15:27:03.472Z,12.57
2022-12-01T15:29:33.353Z,13.90
2022-12-01T15:32:05.716Z,13.13
2022-12-01T15:34:36.325Z,14.63
2022-12-01T15:37:04.773Z,13.43
2022-12-01T15:39:35.507Z,13.93
2022-12-01T15:42:02.445Z,13.37
2022-12-01T15:44:35.259Z,13.90
2022-12-01T15:47:50.115Z,14.57
2022-12-01T15:50:26.165Z,13.97
2022-12-01T15:52:52.736Z,12.50
2022-12-01T15:55:27.025Z,13.83
2022-12-01T15:57:53.898Z,14.40
2022-12-01T16:00:21.950Z,15.53
2022-12-01T16:02:53.749Z,16.97
2022-12-01T16:05:24.295Z,16.87
2022-12-01T16:08:12.505Z,14.73
2022-12-01T16:10:37.462Z,13.97
2022-12-01T16:13:35.400Z,14.20
2022-12-01T16:16:20.366Z,13.90
2022-12-01T16:19:24.013Z,13.83
2022-12-01T16:21:53.735Z,14.10
2022-12-01T16:24:31.914Z,15.97
2022-12-01T16:27:04.138Z,14.87
2022-12-01T16:29:35.359Z,14.67
2022-12-01T16:32:20.714Z,15.27
2022-12-01T16:34:48.462Z,16.37
2022-12-01T16:37:15.435Z,15.87
2022-12-01T16:39:42.134Z,16.20
2022-12-01T16:42:16.528Z,16.00
2022-12-01T16:44:44.828Z,15.67
2022-12-01T16:47:19.350Z,16.13
2022-12-01T16:49:46.237Z,16.73
2022-12-01T16:52:43.165Z,17.97
2022-12-01T16:54:59.912Z,17.53
2022-12-01T16:57:26.309Z,17.60
2022-12-01T16:59:52.872Z,18.27
2022-12-01T17:02:19.457Z,17.80
2022-12-01T17:04:46.007Z,17.83
2022-12-01T17:07:12.475Z,18.03
2022-12-01T17:09:39.237Z,17.50
2022-12-01T17:12:05.858Z,17.80
2022-12-01T17:14:32.304Z,16.33
2022-12-01T17:16:59.074Z,18.77
2022-12-01T17:19:25.522Z,18.83
2022-12-01T17:21:52.922Z,18.63
2022-12-01T17:24:19.566Z,17.37
2022-12-01T17:26:46.090Z,17.93
2022-12-01T17:29:12.562Z,18.20
2022-12-01T17:31:39.058Z,18.00
2022-12-01T17:34:05.554Z,19.20
2022-12-01T17:36:32.091Z,18.97
2022-12-01T17:38:58.917Z,18.10
2022-12-01T17:41:32.039Z,21.37
2022-12-01T17:43:58.574Z,18.90
2022-12-01T17:46:25.089Z,18.23
2022-12-01T17:48:51.607Z,19.60
2022-12-01T17:51:18.132Z,20.13
2022-12-01T17:53:44.723Z,18.67
2022-12-01T17:56:13.426Z,19.23
2022-12-01T17:58:39.874Z,19.40
2022-12-01T18:01:10.789Z,18.57
2022-12-01T18:03:37.244Z,18.20
2022-12-01T18:06:03.806Z,18.23
2022-12-01T18:08:31.313Z,17.90
2022-12-01T18:11:02.708Z,19.37
2022-12-01T18:13:29.355Z,17.77
2022-12-01T18:15:55.890Z,18.47
2022-12-01T18:18:22.528Z,19.33
2022-12-01T18:20:49.168Z,18.33
2022-12-01T18:23:16.002Z,18.67
2022-12-01T18:25:42.661Z,18.13
2022-12-01T18:28:11.147Z,19.40
2022-12-01T18:30:38.724Z,18.80
2022-12-01T18:33:06.563Z,19.13
2022-12-01T18:35:34.021Z,19.20
2022-12-01T18:38:00.615Z,20.00
2022-12-01T18:40:27.308Z,20.87
2022-12-01T18:42:53.832Z,21.23
2022-12-01T18:45:21.515Z,21.57
2022-12-01T18:47:48.294Z,21.77
2022-12-01T18:50:14.867Z,22.63
2022-12-01T18:52:41.399Z,23.00
2022-12-01T18:55:08.158Z,22.87
2022-12-01T18:57:35.663Z,21.30
2022-12-01T19:00:04.826Z,21.17
2022-12-01T19:02:31.436Z,21.53
2022-12-01T19:04:57.903Z,21.53
2022-12-01T19:07:29.584Z,20.60
2022-12-01T19:09:56.451Z,22.33
2022-12-01T19:12:22.939Z,21.40
2022-12-01T19:14:49.828Z,22.20
2022-12-01T19:17:16.757Z,21.87
2022-12-01T19:19:43.241Z,22.70
2022-12-01T19:22:10.131Z,23.60
2022-12-01T19:24:36.593Z,24.23
2022-12-01T19:27:03.199Z,24.47
2022-12-01T19:29:29.615Z,22.47
2022-12-01T19:31:56.317Z,20.93
2022-12-01T19:34:22.887Z,21.73
2022-12-01T19:36:52.170Z,23.53
2022-12-01T19:39:18.996Z,22.70
2022-12-01T19:41:45.522Z,21.90
2022-12-01T19:44:12.137Z,22.17
2022-12-01T19:46:38.642Z,21.00
2022-12-01T19:49:06.637Z,21.77
2022-12-01T19:51:35.474Z,22.37
2022-12-01T19:54:03.768Z,22.20
2022-12-01T19:56:31.215Z,22.43
2022-12-01T19:58:58.727Z,22.20
2022-12-01T20:01:25.800Z,21.63
2022-12-01T20:03:53.284Z,23.27
2022-12-01T20:06:22.835Z,22.27
2022-12-01T20:08:49.706Z,23.93
2022-12-01T20:11:16.847Z,24.17
2022-12-01T20:13:45.173Z,23.50
2022-12-01T20:16:17.288Z,21.93
2022-12-01T20:18:43.978Z,23.60
2022-12-01T20:21:16.125Z,23.53
2022-12-01T20:23:44.129Z,22.30
2022-12-01T20:26:11.958Z,22.30
2022-12-01T20:28:39.130Z,23.53
2022-12-01T20:31:12.267Z,20.87
2022-12-01T20:33:39.805Z,21.83
2022-12-01T20:36:07.575Z,24.00
2022-12-01T20:38:35.602Z,22.50
2022-12-01T20:41:02.303Z,22.87
2022-12-01T20:43:28.890Z,24.40
2022-12-01T20:45:55.622Z,24.50
2022-12-01T20:48:22.318Z,24.00
2022-12-01T20:50:48.869Z,23.73
2022-12-01T20:53:15.982Z,22.83
2022-12-01T20:55:43.233Z,23.00
2022-12-01T20:58:10.048Z,22.93
2022-12-01T21:00:41.104Z,24.37
2022-12-01T21:03:07.776Z,22.37
2022-12-01T21:05:37.977Z,22.30
2022-12-01T21:08:08.058Z,21.83
2022-12-01T21:10:38.134Z,21.63
2022-12-01T21:13:39.292Z,21.80
2022-12-01T21:16:14.077Z,20.77
2022-12-01T21:18:55.381Z,23.30
2022-12-01T21:21:35.099Z,22.80
2022-12-01T21:24:07.581Z,21.53
2022-12-01T21:26:36.285Z,23.17
2022-12-01T21:29:14.304Z,23.57
2022-12-01T21:31:41.128Z,23.07
2022-12-01T21:34:14.622Z,22.67
2022-12-01T21:36:41.270Z,22.97
2022-12-01T21:39:14.678Z,22.23
2022-12-01T21:41:41.562Z,21.90
2022-12-01T21:44:13.674Z,23.93
2022-12-01T21:46:42.029Z,23.57
2022-12-01T21:49:20.476Z,22.60
2022-12-01T21:51:48.314Z,22.27
2022-12-01T21:54:22.099Z,24.47
2022-12-01T21:56:49.189Z,21.40
2022-12-01T21:59:19.421Z,23.23
2022-12-01T22:01:46.646Z,24.10
2022-12-01T22:04:19.035Z,25.27
2022-12-01T22:06:48.707Z,22.63
2022-12-01T22:09:22.192Z,22.23
2022-12-01T22:11:56.956Z,21.17
2022-12-01T22:14:27.213Z,21.93
2022-12-01T22:16:59.183Z,24.47
2022-12-01T22:19:29.042Z,23.20
2022-12-01T22:22:16.113Z,22.70
2022-12-01T22:24:45.155Z,22.47
2022-12-01T22:27:30.084Z,21.53
2022-12-01T22:30:07.294Z,20.60
2022-12-01T22:32:34.079Z,21.93
2022-12-01T22:35:10.689Z,22.97
2022-12-01T22:37:43.413Z,21.60
2022-12-01T22:40:35.664Z,23.20
2022-12-01T22:43:17.698Z,23.97
2022-12-01T22:45:49.742Z,23.93
2022-12-01T22:48:46.179Z,24.80
2022-12-01T22:51:12.746Z,24.17
2022-12-01T22:53:40.279Z,23.67
2022-12-01T22:56:38.672Z,24.43
2022-12-01T22:59:37.613Z,23.40
2022-12-01T23:02:21.313Z,24.57
2022-12-01T23:04:56.863Z,23.70
2022-12-01T23:07:26.192Z,22.60
2022-12-01T23:09:53.020Z,22.33
2022-12-01T23:12:31.463Z,21.67
2022-12-01T23:15:14.894Z,21.73
2022-12-01T23:17:41.689Z,23.53
2022-12-01T23:20:11.553Z,22.03
2022-12-01T23:22:38.554Z,23.07
2022-12-01T23:25:17.277Z,22.10
2022-12-01T23:27:46.264Z,22.23
2022-12-01T23:30:14.443Z,21.80
2022-12-01T23:32:41.380Z,23.43
2022-12-01T23:35:16.391Z,21.97
2022-12-01T23:37:44.491Z,21.40
2022-12-01T23:40:21.087Z,22.57
2022-12-01T23:42:47.819Z,22.27
2022-12-01T23:45:21.731Z,23.07
2022-12-01T23:47:48.969Z,23.60
2022-12-01T23:50:20.119Z,22.90
2022-12-01T23:52:46.945Z,21.93
2022-12-01T23:55:26.506Z,21.63
2022-12-01T23:57:53.423Z,21.20
